sensor_id;sensor_type;location;lat;lon;timestamp;temperature;humidity
74359;DHT22;62792;46.236;6.040;2023-02-20T00:04:34;24.50;36.70
74359;DHT22;62792;46.236;6.040;2023-02-20T00:09:38;24.50;36.60
74359;DHT22;62792;46.236;6.040;2023-02-20T00:14:42;24.50;36.60
74359;DHT22;62792;46.236;6.040;2023-02-20T00:19:45;24.60;36.50
74359;DHT22;62792;46.236;6.040;2023-02-20T00:24:48;24.50;36.50
74359;DHT22;62792;46.236;6.040;2023-02-20T00:29:52;24.50;36.30
74359;DHT22;62792;46.236;6.040;2023-02-20T00:34:55;24.50;36.40
74359;DHT22;62792;46.236;6.040;2023-02-20T00:39:59;24.50;36.30
74359;DHT22;62792;46.236;6.040;2023-02-20T00:45:03;24.50;36.40
74359;DHT22;62792;46.236;6.040;2023-02-20T00:50:07;24.60;36.20
74359;DHT22;62792;46.236;6.040;2023-02-20T00:55:11;24.60;36.20
74359;DHT22;62792;46.236;6.040;2023-02-20T01:00:18;24.50;36.20
74359;DHT22;62792;46.236;6.040;2023-02-20T01:05:23;24.40;36.20
74359;DHT22;62792;46.236;6.040;2023-02-20T01:10:26;24.50;36.20
74359;DHT22;62792;46.236;6.040;2023-02-20T01:15:30;24.50;36.30
74359;DHT22;62792;46.236;6.040;2023-02-20T01:20:33;24.50;35.90
74359;DHT22;62792;46.236;6.040;2023-02-20T01:25:36;24.40;36.20
74359;DHT22;62792;46.236;6.040;2023-02-20T01:30:41;24.50;36.00
74359;DHT22;62792;46.236;6.040;2023-02-20T01:35:43;24.40;36.00
74359;DHT22;62792;46.236;6.040;2023-02-20T01:40:47;24.50;36.10
74359;DHT22;62792;46.236;6.040;2023-02-20T01:45:51;24.50;36.00
74359;DHT22;62792;46.236;6.040;2023-02-20T01:50:55;24.50;36.10
74359;DHT22;62792;46.236;6.040;2023-02-20T01:56:00;24.40;36.00
74359;DHT22;62792;46.236;6.040;2023-02-20T02:01:06;24.50;36.00
74359;DHT22;62792;46.236;6.040;2023-02-20T02:06:11;24.40;36.00
74359;DHT22;62792;46.236;6.040;2023-02-20T02:11:15;24.40;36.00
74359;DHT22;62792;46.236;6.040;2023-02-20T02:16:22;24.40;35.90
74359;DHT22;62792;46.236;6.040;2023-02-20T02:21:51;24.40;35.90
74359;DHT22;62792;46.236;6.040;2023-02-20T02:32:53;24.40;35.80
74359;DHT22;62792;46.236;6.040;2023-02-20T02:38:10;24.40;35.70
74359;DHT22;62792;46.236;6.040;2023-02-20T02:43:18;24.40;35.80
74359;DHT22;62792;46.236;6.040;2023-02-20T02:48:27;24.40;35.80
74359;DHT22;62792;46.236;6.040;2023-02-20T02:53:34;24.40;35.70
74359;DHT22;62792;46.236;6.040;2023-02-20T02:58:36;24.40;35.50
74359;DHT22;62792;46.236;6.040;2023-02-20T03:03:39;24.40;35.70
74359;DHT22;62792;46.236;6.040;2023-02-20T03:08:47;24.40;35.60
74359;DHT22;62792;46.236;6.040;2023-02-20T03:13:58;24.30;35.50
74359;DHT22;62792;46.236;6.040;2023-02-20T03:19:24;24.30;35.50
74359;DHT22;62792;46.236;6.040;2023-02-20T03:24:31;24.40;35.40
74359;DHT22;62792;46.236;6.040;2023-02-20T03:29:56;24.30;35.20
74359;DHT22;62792;46.236;6.040;2023-02-20T03:35:00;24.30;35.30
74359;DHT22;62792;46.236;6.040;2023-02-20T03:40:23;24.40;35.30
74359;DHT22;62792;46.236;6.040;2023-02-20T03:45:44;24.30;35.20
74359;DHT22;62792;46.236;6.040;2023-02-20T03:50:49;24.30;35.30
74359;DHT22;62792;46.236;6.040;2023-02-20T03:55:53;24.30;35.20
74359;DHT22;62792;46.236;6.040;2023-02-20T04:00:57;24.20;35.40
74359;DHT22;62792;46.236;6.040;2023-02-20T04:06:02;24.40;35.30
74359;DHT22;62792;46.236;6.040;2023-02-20T04:11:07;24.30;35.40
74359;DHT22;62792;46.236;6.040;2023-02-20T04:16:12;24.30;35.40
74359;DHT22;62792;46.236;6.040;2023-02-20T04:21:17;24.30;35.20
74359;DHT22;62792;46.236;6.040;2023-02-20T04:26:24;24.30;35.20
74359;DHT22;62792;46.236;6.040;2023-02-20T04:31:27;24.30;35.10
74359;DHT22;62792;46.236;6.040;2023-02-20T04:36:30;24.30;35.20
74359;DHT22;62792;46.236;6.040;2023-02-20T04:41:35;24.30;35.10
74359;DHT22;62792;46.236;6.040;2023-02-20T04:46:38;24.30;35.10
74359;DHT22;62792;46.236;6.040;2023-02-20T04:51:41;24.30;35.20
74359;DHT22;62792;46.236;6.040;2023-02-20T04:56:45;24.30;35.20
74359;DHT22;62792;46.236;6.040;2023-02-20T05:01:48;24.30;35.00
74359;DHT22;62792;46.236;6.040;2023-02-20T05:06:53;24.30;35.20
74359;DHT22;62792;46.236;6.040;2023-02-20T05:11:58;24.30;35.20
74359;DHT22;62792;46.236;6.040;2023-02-20T05:17:01;24.30;35.20
74359;DHT22;62792;46.236;6.040;2023-02-20T05:22:05;24.30;35.20
74359;DHT22;62792;46.236;6.040;2023-02-20T05:27:24;24.30;35.10
74359;DHT22;62792;46.236;6.040;2023-02-20T05:32:28;24.20;35.00
74359;DHT22;62792;46.236;6.040;2023-02-20T05:37:32;24.20;35.00
74359;DHT22;62792;46.236;6.040;2023-02-20T05:42:36;24.30;34.90
74359;DHT22;62792;46.236;6.040;2023-02-20T05:47:43;24.20;35.00
74359;DHT22;62792;46.236;6.040;2023-02-20T05:52:46;24.20;34.80
74359;DHT22;62792;46.236;6.040;2023-02-20T05:57:50;24.20;34.80
74359;DHT22;62792;46.236;6.040;2023-02-20T06:02:53;24.30;34.80
74359;DHT22;62792;46.236;6.040;2023-02-20T06:07:56;24.20;34.70
74359;DHT22;62792;46.236;6.040;2023-02-20T06:13:00;24.20;34.70
74359;DHT22;62792;46.236;6.040;2023-02-20T06:18:03;24.20;34.90
74359;DHT22;62792;46.236;6.040;2023-02-20T06:23:06;24.20;34.80
74359;DHT22;62792;46.236;6.040;2023-02-20T06:28:10;24.20;34.60
74359;DHT22;62792;46.236;6.040;2023-02-20T06:33:13;24.30;34.60
74359;DHT22;62792;46.236;6.040;2023-02-20T06:38:16;24.20;34.70
74359;DHT22;62792;46.236;6.040;2023-02-20T06:43:20;24.10;34.80
74359;DHT22;62792;46.236;6.040;2023-02-20T06:48:23;24.20;34.70
74359;DHT22;62792;46.236;6.040;2023-02-20T06:53:26;24.20;34.50
74359;DHT22;62792;46.236;6.040;2023-02-20T06:58:30;24.20;34.30
74359;DHT22;62792;46.236;6.040;2023-02-20T07:03:34;24.30;34.50
74359;DHT22;62792;46.236;6.040;2023-02-20T07:08:37;24.30;34.50
74359;DHT22;62792;46.236;6.040;2023-02-20T07:13:42;24.30;34.50
74359;DHT22;62792;46.236;6.040;2023-02-20T07:18:45;24.30;34.50
74359;DHT22;62792;46.236;6.040;2023-02-20T07:23:48;24.20;34.50
74359;DHT22;62792;46.236;6.040;2023-02-20T07:28:52;24.30;34.20
74359;DHT22;62792;46.236;6.040;2023-02-20T07:33:56;24.20;34.30
74359;DHT22;62792;46.236;6.040;2023-02-20T07:38:59;24.30;34.20
74359;DHT22;62792;46.236;6.040;2023-02-20T07:44:05;24.30;34.30
74359;DHT22;62792;46.236;6.040;2023-02-20T07:49:09;24.30;34.30
74359;DHT22;62792;46.236;6.040;2023-02-20T07:54:13;24.40;34.10
74359;DHT22;62792;46.236;6.040;2023-02-20T07:59:17;24.40;34.30
74359;DHT22;62792;46.236;6.040;2023-02-20T08:04:20;24.30;34.30
74359;DHT22;62792;46.236;6.040;2023-02-20T08:09:23;24.30;34.20
74359;DHT22;62792;46.236;6.040;2023-02-20T08:14:27;24.30;34.20
74359;DHT22;62792;46.236;6.040;2023-02-20T08:19:32;24.30;34.50
74359;DHT22;62792;46.236;6.040;2023-02-20T08:24:34;24.40;34.40
74359;DHT22;62792;46.236;6.040;2023-02-20T08:29:39;24.40;34.50
74359;DHT22;62792;46.236;6.040;2023-02-20T08:34:42;24.40;34.50
74359;DHT22;62792;46.236;6.040;2023-02-20T08:39:45;24.40;34.60
74359;DHT22;62792;46.236;6.040;2023-02-20T08:44:49;24.30;34.50
74359;DHT22;62792;46.236;6.040;2023-02-20T08:49:52;24.40;34.60
74359;DHT22;62792;46.236;6.040;2023-02-20T08:54:55;24.40;34.60
74359;DHT22;62792;46.236;6.040;2023-02-20T08:59:59;24.30;34.60
74359;DHT22;62792;46.236;6.040;2023-02-20T09:05:02;24.40;34.80
74359;DHT22;62792;46.236;6.040;2023-02-20T09:10:07;24.40;34.80
74359;DHT22;62792;46.236;6.040;2023-02-20T09:15:12;24.40;34.90
74359;DHT22;62792;46.236;6.040;2023-02-20T09:20:19;24.40;35.10
74359;DHT22;62792;46.236;6.040;2023-02-20T09:25:23;24.40;34.60
74359;DHT22;62792;46.236;6.040;2023-02-20T09:30:27;24.40;34.90
74359;DHT22;62792;46.236;6.040;2023-02-20T09:35:30;24.40;34.80
74359;DHT22;62792;46.236;6.040;2023-02-20T09:40:33;24.40;34.90
74359;DHT22;62792;46.236;6.040;2023-02-20T09:45:38;24.50;34.80
74359;DHT22;62792;46.236;6.040;2023-02-20T09:50:43;24.50;35.10
74359;DHT22;62792;46.236;6.040;2023-02-20T09:55:50;24.50;35.10
74359;DHT22;62792;46.236;6.040;2023-02-20T10:00:57;24.40;35.30
74359;DHT22;62792;46.236;6.040;2023-02-20T10:06:02;24.50;35.20
74359;DHT22;62792;46.236;6.040;2023-02-20T10:11:15;24.50;35.10
74359;DHT22;62792;46.236;6.040;2023-02-20T10:16:29;24.50;35.20
74359;DHT22;62792;46.236;6.040;2023-02-20T10:21:38;24.60;35.10
74359;DHT22;62792;46.236;6.040;2023-02-20T10:26:52;24.60;35.20
74359;DHT22;62792;46.236;6.040;2023-02-20T10:31:59;24.60;35.20
74359;DHT22;62792;46.236;6.040;2023-02-20T10:37:05;24.50;35.30
74359;DHT22;62792;46.236;6.040;2023-02-20T10:42:11;24.60;35.10
74359;DHT22;62792;46.236;6.040;2023-02-20T10:47:20;24.60;35.20
74359;DHT22;62792;46.236;6.040;2023-02-20T10:52:26;24.60;35.20
74359;DHT22;62792;46.236;6.040;2023-02-20T10:57:35;24.50;35.30
74359;DHT22;62792;46.236;6.040;2023-02-20T11:02:43;24.60;35.20
74359;DHT22;62792;46.236;6.040;2023-02-20T11:07:48;24.60;35.40
74359;DHT22;62792;46.236;6.040;2023-02-20T11:12:52;24.60;35.30
74359;DHT22;62792;46.236;6.040;2023-02-20T11:18:01;24.60;35.20
74359;DHT22;62792;46.236;6.040;2023-02-20T11:23:06;24.70;35.20
74359;DHT22;62792;46.236;6.040;2023-02-20T11:28:16;24.70;35.30
74359;DHT22;62792;46.236;6.040;2023-02-20T11:33:22;24.70;35.30
74359;DHT22;62792;46.236;6.040;2023-02-20T11:38:31;24.60;35.20
74359;DHT22;62792;46.236;6.040;2023-02-20T11:43:36;24.60;35.40
74359;DHT22;62792;46.236;6.040;2023-02-20T11:48:58;24.60;35.40
74359;DHT22;62792;46.236;6.040;2023-02-20T11:54:06;24.70;35.50
74359;DHT22;62792;46.236;6.040;2023-02-20T11:59:25;24.70;35.40
74359;DHT22;62792;46.236;6.040;2023-02-20T12:04:31;24.80;35.30
74359;DHT22;62792;46.236;6.040;2023-02-20T12:09:34;24.80;35.40
74359;DHT22;62792;46.236;6.040;2023-02-20T12:14:37;24.80;35.20
74359;DHT22;62792;46.236;6.040;2023-02-20T12:19:44;24.90;35.30
74359;DHT22;62792;46.236;6.040;2023-02-20T12:24:55;24.80;35.60
74359;DHT22;62792;46.236;6.040;2023-02-20T12:30:09;24.70;35.50
74359;DHT22;62792;46.236;6.040;2023-02-20T12:40:46;24.80;35.50
74359;DHT22;62792;46.236;6.040;2023-02-20T12:45:59;21.60;40.10
74359;DHT22;62792;46.236;6.040;2023-02-20T12:51:10;23.10;40.00
74359;DHT22;62792;46.236;6.040;2023-02-20T12:56:23;23.80;39.10
74359;DHT22;62792;46.236;6.040;2023-02-20T13:01:31;23.90;39.50
74359;DHT22;62792;46.236;6.040;2023-02-20T13:06:44;23.80;39.20
74359;DHT22;62792;46.236;6.040;2023-02-20T13:11:50;23.80;38.90
74359;DHT22;62792;46.236;6.040;2023-02-20T13:16:56;24.00;41.00
74359;DHT22;62792;46.236;6.040;2023-02-20T13:22:07;24.20;38.90
74359;DHT22;62792;46.236;6.040;2023-02-20T13:27:10;24.20;38.50
74359;DHT22;62792;46.236;6.040;2023-02-20T13:32:30;24.30;38.30
74359;DHT22;62792;46.236;6.040;2023-02-20T13:37:52;24.20;38.10
74359;DHT22;62792;46.236;6.040;2023-02-20T13:48:40;20.30;43.50
74359;DHT22;62792;46.236;6.040;2023-02-20T13:53:47;22.60;41.10
74359;DHT22;62792;46.236;6.040;2023-02-20T13:58:52;23.70;39.10
74359;DHT22;62792;46.236;6.040;2023-02-20T14:04:00;24.00;38.70
74359;DHT22;62792;46.236;6.040;2023-02-20T14:09:07;24.10;39.10
74359;DHT22;62792;46.236;6.040;2023-02-20T14:14:17;24.20;39.60
74359;DHT22;62792;46.236;6.040;2023-02-20T14:19:26;24.30;39.50
74359;DHT22;62792;46.236;6.040;2023-02-20T14:24:31;24.40;39.90
74359;DHT22;62792;46.236;6.040;2023-02-20T14:29:34;24.40;40.90
74359;DHT22;62792;46.236;6.040;2023-02-20T14:34:42;24.40;41.00
74359;DHT22;62792;46.236;6.040;2023-02-20T14:39:52;24.40;40.80
74359;DHT22;62792;46.236;6.040;2023-02-20T14:45:00;24.40;41.90
74359;DHT22;62792;46.236;6.040;2023-02-20T14:50:13;24.40;40.90
74359;DHT22;62792;46.236;6.040;2023-02-20T14:55:18;24.60;40.50
74359;DHT22;62792;46.236;6.040;2023-02-20T15:00:22;24.60;43.80
74359;DHT22;62792;46.236;6.040;2023-02-20T15:05:32;24.70;45.00
74359;DHT22;62792;46.236;6.040;2023-02-20T15:10:37;24.70;41.80
74359;DHT22;62792;46.236;6.040;2023-02-20T15:15:43;24.70;44.30
74359;DHT22;62792;46.236;6.040;2023-02-20T15:20:48;24.70;42.90
74359;DHT22;62792;46.236;6.040;2023-02-20T15:25:52;24.60;43.40
74359;DHT22;62792;46.236;6.040;2023-02-20T15:36:24;25.10;40.70
74359;DHT22;62792;46.236;6.040;2023-02-20T15:41:28;26.00;38.90
74359;DHT22;62792;46.236;6.040;2023-02-20T15:46:31;26.20;38.50
74359;DHT22;62792;46.236;6.040;2023-02-20T15:51:36;26.10;38.10
74359;DHT22;62792;46.236;6.040;2023-02-20T15:56:42;25.60;39.20
74359;DHT22;62792;46.236;6.040;2023-02-20T16:01:45;25.40;39.00
74359;DHT22;62792;46.236;6.040;2023-02-20T16:06:49;25.20;38.90
74359;DHT22;62792;46.236;6.040;2023-02-20T16:11:53;25.20;39.00
74359;DHT22;62792;46.236;6.040;2023-02-20T16:16:56;25.30;38.90
74359;DHT22;62792;46.236;6.040;2023-02-20T16:21:59;25.40;38.90
74359;DHT22;62792;46.236;6.040;2023-02-20T16:27:03;25.40;38.50
74359;DHT22;62792;46.236;6.040;2023-02-20T16:32:23;25.20;39.10
74359;DHT22;62792;46.236;6.040;2023-02-20T16:37:27;25.30;39.00
74359;DHT22;62792;46.236;6.040;2023-02-20T16:42:32;25.10;38.70
74359;DHT22;62792;46.236;6.040;2023-02-20T16:47:36;24.90;39.30
74359;DHT22;62792;46.236;6.040;2023-02-20T16:52:39;24.90;41.20
74359;DHT22;62792;46.236;6.040;2023-02-20T16:57:44;25.40;41.50
74359;DHT22;62792;46.236;6.040;2023-02-20T17:02:46;25.70;41.10
74359;DHT22;62792;46.236;6.040;2023-02-20T17:07:49;25.80;40.70
74359;DHT22;62792;46.236;6.040;2023-02-20T17:12:54;25.80;40.40
74359;DHT22;62792;46.236;6.040;2023-02-20T17:17:58;25.70;40.40
74359;DHT22;62792;46.236;6.040;2023-02-20T17:23:01;25.80;40.30
74359;DHT22;62792;46.236;6.040;2023-02-20T17:28:07;25.50;40.30
74359;DHT22;62792;46.236;6.040;2023-02-20T17:33:10;25.60;40.10
74359;DHT22;62792;46.236;6.040;2023-02-20T17:38:13;25.50;39.90
74359;DHT22;62792;46.236;6.040;2023-02-20T17:43:17;25.50;40.00
74359;DHT22;62792;46.236;6.040;2023-02-20T17:48:20;25.50;39.90
74359;DHT22;62792;46.236;6.040;2023-02-20T17:53:23;25.40;39.70
74359;DHT22;62792;46.236;6.040;2023-02-20T17:58:27;25.30;39.70
74359;DHT22;62792;46.236;6.040;2023-02-20T18:03:30;25.30;39.80
74359;DHT22;62792;46.236;6.040;2023-02-20T18:08:33;25.30;39.80
74359;DHT22;62792;46.236;6.040;2023-02-20T18:13:37;25.30;39.50
74359;DHT22;62792;46.236;6.040;2023-02-20T18:18:40;25.20;39.60
74359;DHT22;62792;46.236;6.040;2023-02-20T18:23:43;25.20;39.40
74359;DHT22;62792;46.236;6.040;2023-02-20T18:28:48;25.20;39.20
74359;DHT22;62792;46.236;6.040;2023-02-20T18:33:52;25.00;39.20
74359;DHT22;62792;46.236;6.040;2023-02-20T18:38:55;25.10;39.10
74359;DHT22;62792;46.236;6.040;2023-02-20T18:44:00;25.10;39.10
74359;DHT22;62792;46.236;6.040;2023-02-20T18:49:03;25.00;39.20
74359;DHT22;62792;46.236;6.040;2023-02-20T18:54:07;25.00;39.00
74359;DHT22;62792;46.236;6.040;2023-02-20T18:59:12;25.00;38.90
74359;DHT22;62792;46.236;6.040;2023-02-20T19:04:15;25.00;39.10
74359;DHT22;62792;46.236;6.040;2023-02-20T19:09:19;24.90;39.00
74359;DHT22;62792;46.236;6.040;2023-02-20T19:14:24;25.00;38.90
74359;DHT22;62792;46.236;6.040;2023-02-20T19:19:30;24.90;38.90
74359;DHT22;62792;46.236;6.040;2023-02-20T19:24:36;24.90;38.70
74359;DHT22;62792;46.236;6.040;2023-02-20T19:29:41;24.80;38.50
74359;DHT22;62792;46.236;6.040;2023-02-20T19:34:46;24.80;38.80
74359;DHT22;62792;46.236;6.040;2023-02-20T19:39:49;24.80;38.80
74359;DHT22;62792;46.236;6.040;2023-02-20T19:44:53;24.80;38.80
74359;DHT22;62792;46.236;6.040;2023-02-20T19:49:56;24.70;38.50
74359;DHT22;62792;46.236;6.040;2023-02-20T19:54:59;24.80;38.50
74359;DHT22;62792;46.236;6.040;2023-02-20T20:00:03;24.80;38.50
74359;DHT22;62792;46.236;6.040;2023-02-20T20:05:06;24.70;38.60
74359;DHT22;62792;46.236;6.040;2023-02-20T20:10:10;24.70;38.60
74359;DHT22;62792;46.236;6.040;2023-02-20T20:15:15;24.70;38.40
74359;DHT22;62792;46.236;6.040;2023-02-20T20:20:20;24.60;38.40
74359;DHT22;62792;46.236;6.040;2023-02-20T20:25:24;24.70;38.50
74359;DHT22;62792;46.236;6.040;2023-02-20T20:30:28;24.70;38.10
74359;DHT22;62792;46.236;6.040;2023-02-20T20:35:32;24.70;38.40
74359;DHT22;62792;46.236;6.040;2023-02-20T20:40:35;24.70;38.30
74359;DHT22;62792;46.236;6.040;2023-02-20T20:45:39;24.70;38.30
74359;DHT22;62792;46.236;6.040;2023-02-20T20:50:42;24.70;38.40
74359;DHT22;62792;46.236;6.040;2023-02-20T20:55:45;24.70;38.20
74359;DHT22;62792;46.236;6.040;2023-02-20T21:00:49;24.60;38.20
74359;DHT22;62792;46.236;6.040;2023-02-20T21:05:54;24.60;38.20
74359;DHT22;62792;46.236;6.040;2023-02-20T21:10:57;24.50;38.10
74359;DHT22;62792;46.236;6.040;2023-02-20T21:16:03;24.50;38.10
74359;DHT22;62792;46.236;6.040;2023-02-20T21:21:08;24.50;38.10
74359;DHT22;62792;46.236;6.040;2023-02-20T21:26:11;24.50;37.90
74359;DHT22;62792;46.236;6.040;2023-02-20T21:31:15;24.50;38.00
74359;DHT22;62792;46.236;6.040;2023-02-20T21:36:21;24.60;37.80
74359;DHT22;62792;46.236;6.040;2023-02-20T21:41:24;24.50;37.80
74359;DHT22;62792;46.236;6.040;2023-02-20T21:46:48;24.50;37.80
74359;DHT22;62792;46.236;6.040;2023-02-20T21:51:51;24.40;37.80
74359;DHT22;62792;46.236;6.040;2023-02-20T21:56:54;24.50;38.00
74359;DHT22;62792;46.236;6.040;2023-02-20T22:01:58;24.50;37.90
74359;DHT22;62792;46.236;6.040;2023-02-20T22:07:02;24.50;37.70
74359;DHT22;62792;46.236;6.040;2023-02-20T22:12:23;24.40;37.70
74359;DHT22;62792;46.236;6.040;2023-02-20T22:17:45;24.50;37.60
74359;DHT22;62792;46.236;6.040;2023-02-20T22:23:05;24.40;37.70
74359;DHT22;62792;46.236;6.040;2023-02-20T22:28:26;24.40;37.70
74359;DHT22;62792;46.236;6.040;2023-02-20T22:33:48;24.50;37.50
74359;DHT22;62792;46.236;6.040;2023-02-20T22:39:10;24.50;37.60
74359;DHT22;62792;46.236;6.040;2023-02-20T22:44:30;24.40;37.60
74359;DHT22;62792;46.236;6.040;2023-02-20T22:49:53;24.50;37.50
74359;DHT22;62792;46.236;6.040;2023-02-20T22:55:13;24.40;37.40
74359;DHT22;62792;46.236;6.040;2023-02-20T23:00:34;24.40;37.50
74359;DHT22;62792;46.236;6.040;2023-02-20T23:05:56;24.40;37.40
74359;DHT22;62792;46.236;6.040;2023-02-20T23:11:19;24.30;37.20
74359;DHT22;62792;46.236;6.040;2023-02-20T23:16:40;24.40;37.10
74359;DHT22;62792;46.236;6.040;2023-02-20T23:22:01;24.30;37.40
74359;DHT22;62792;46.236;6.040;2023-02-20T23:27:22;24.30;37.20
74359;DHT22;62792;46.236;6.040;2023-02-20T23:32:42;24.30;37.20
74359;DHT22;62792;46.236;6.040;2023-02-20T23:38:04;24.30;37.10
74359;DHT22;62792;46.236;6.040;2023-02-20T23:43:26;24.30;37.20
74359;DHT22;62792;46.236;6.040;2023-02-20T23:48:47;24.40;37.10
74359;DHT22;62792;46.236;6.040;2023-02-20T23:54:09;24.30;37.10
74359;DHT22;62792;46.236;6.040;2023-02-20T23:59:29;24.30;37.00
